createdAt,value
2018-01-24T00:01:10.738Z,9.86
2018-01-24T00:03:38.301Z,9.79
2018-01-24T00:06:06.241Z,9.89
2018-01-24T00:08:33.814Z,10.02
2018-01-24T00:11:01.373Z,9.83
2018-01-24T00:13:29.001Z,9.80
2018-01-24T00:15:56.557Z,9.93
2018-01-24T00:18:24.122Z,9.93
2018-01-24T00:20:51.715Z,9.83
2018-01-24T00:23:20.162Z,9.93
2018-01-24T00:25:47.692Z,9.92
2018-01-24T00:28:15.236Z,10.02
2018-01-24T00:30:42.815Z,10.00
2018-01-24T00:33:10.413Z,10.08
2018-01-24T00:35:38.205Z,10.13
2018-01-24T00:38:05.789Z,10.01
2018-01-24T00:40:33.453Z,10.13
2018-01-24T00:43:01.052Z,9.98
2018-01-24T00:45:28.612Z,9.98
2018-01-24T00:47:56.176Z,10.08
2018-01-24T00:50:23.729Z,10.04
2018-01-24T00:52:51.324Z,9.98
2018-01-24T00:55:18.851Z,10.13
2018-01-24T00:57:46.371Z,10.12
2018-01-24T01:00:13.920Z,10.00
2018-01-24T01:02:41.440Z,9.96
2018-01-24T01:05:08.987Z,9.99
2018-01-24T01:07:36.652Z,10.09
2018-01-24T01:10:04.272Z,10.10
2018-01-24T01:12:31.838Z,10.06
2018-01-24T01:14:59.403Z,10.07
2018-01-24T01:17:26.974Z,10.17
2018-01-24T01:19:54.595Z,10.09
2018-01-24T01:22:22.149Z,10.13
2018-01-24T01:24:49.722Z,10.17
2018-01-24T01:27:17.544Z,10.13
2018-01-24T01:29:45.134Z,10.15
2018-01-24T01:32:12.715Z,10.23
2018-01-24T01:34:40.287Z,10.16
2018-01-24T01:37:07.864Z,10.25
2018-01-24T01:39:35.443Z,10.21
2018-01-24T01:42:03.189Z,10.25
2018-01-24T01:44:30.765Z,10.09
2018-01-24T01:46:58.431Z,10.22
2018-01-24T01:49:26.013Z,10.21
2018-01-24T01:51:53.628Z,10.29
2018-01-24T01:54:21.194Z,10.29
2018-01-24T01:56:49.097Z,10.23
2018-01-24T01:59:16.626Z,10.20
2018-01-24T02:01:44.185Z,10.21
2018-01-24T02:04:11.759Z,10.30
2018-01-24T02:06:39.365Z,10.37
2018-01-24T02:09:06.920Z,10.40
2018-01-24T02:11:34.438Z,10.27
2018-01-24T02:14:02.016Z,10.36
2018-01-24T02:16:29.545Z,10.33
2018-01-24T02:18:57.180Z,10.46
2018-01-24T02:21:24.732Z,10.42
2018-01-24T02:23:52.300Z,10.43
2018-01-24T02:26:19.838Z,10.44
2018-01-24T02:28:47.476Z,10.53
2018-01-24T02:31:15.035Z,10.48
2018-01-24T02:33:42.589Z,10.44
2018-01-24T02:36:10.172Z,10.49
2018-01-24T02:38:49.752Z,10.61
2018-01-24T02:41:17.334Z,10.64
2018-01-24T02:43:44.896Z,10.59
2018-01-24T02:46:12.487Z,10.66
2018-01-24T02:48:40.040Z,10.68
2018-01-24T02:51:07.659Z,10.60
2018-01-24T02:53:35.197Z,10.69
2018-01-24T02:56:02.869Z,10.63
2018-01-24T02:58:30.451Z,10.71
2018-01-24T03:00:58.040Z,10.56
2018-01-24T03:03:25.592Z,10.56
2018-01-24T03:05:53.225Z,10.66
2018-01-24T03:08:20.813Z,10.52
2018-01-24T03:10:48.504Z,10.53
2018-01-24T03:13:16.089Z,10.59
2018-01-24T03:15:43.680Z,10.57
2018-01-24T03:18:11.259Z,10.51
2018-01-24T03:20:38.808Z,10.61
2018-01-24T03:23:06.360Z,10.57
2018-01-24T03:25:33.936Z,10.53
2018-01-24T03:28:01.520Z,10.69
2018-01-24T03:30:29.080Z,10.54
2018-01-24T03:32:56.765Z,10.76
2018-01-24T03:35:24.340Z,10.62
2018-01-24T03:37:51.955Z,10.65
2018-01-24T03:40:19.514Z,10.70
2018-01-24T03:42:47.043Z,10.84
2018-01-24T03:45:14.619Z,10.66
2018-01-24T03:47:42.158Z,10.67
2018-01-24T03:50:09.708Z,10.72
2018-01-24T03:52:37.292Z,10.71
2018-01-24T03:55:04.853Z,10.68
2018-01-24T03:57:32.493Z,10.73
2018-01-24T04:00:00.064Z,10.68
2018-01-24T04:02:27.651Z,10.63
2018-01-24T04:04:55.171Z,10.62
2018-01-24T04:07:22.747Z,10.66
2018-01-24T04:09:50.464Z,10.61
2018-01-24T04:12:18.136Z,10.70
2018-01-24T04:14:45.691Z,10.58
2018-01-24T04:17:13.263Z,10.59
2018-01-24T04:19:40.782Z,10.51
2018-01-24T04:22:08.347Z,10.51
2018-01-24T04:24:35.884Z,10.54
2018-01-24T04:27:03.795Z,10.59
2018-01-24T04:29:31.347Z,10.64
2018-01-24T04:31:58.875Z,10.43
2018-01-24T04:34:26.452Z,10.42
2018-01-24T04:36:54.040Z,10.55
2018-01-24T04:39:21.590Z,10.63
2018-01-24T04:41:49.144Z,10.64
2018-01-24T04:44:16.721Z,10.66
2018-01-24T04:46:44.272Z,10.71
2018-01-24T04:49:11.833Z,10.68
2018-01-24T04:51:39.418Z,10.65
2018-01-24T04:54:07.028Z,10.61
2018-01-24T04:56:34.627Z,10.67
2018-01-24T04:59:02.213Z,10.66
2018-01-24T05:01:29.776Z,10.69
2018-01-24T05:03:57.695Z,10.70
2018-01-24T05:06:25.245Z,10.79
2018-01-24T05:08:52.788Z,10.64
2018-01-24T05:11:20.377Z,10.68
2018-01-24T05:13:47.934Z,10.59
2018-01-24T05:16:15.504Z,10.67
2018-01-24T05:18:43.123Z,10.78
2018-01-24T05:21:11.263Z,10.86
2018-01-24T05:23:38.859Z,10.74
2018-01-24T05:26:06.498Z,10.61
2018-01-24T05:28:34.037Z,10.73
2018-01-24T05:31:01.593Z,10.66
2018-01-24T05:33:29.148Z,10.76
2018-01-24T05:35:56.737Z,10.81
2018-01-24T05:38:24.293Z,10.73
2018-01-24T05:40:51.868Z,10.75
2018-01-24T05:43:19.395Z,10.80
2018-01-24T05:45:46.924Z,10.69
2018-01-24T05:48:14.842Z,10.75
2018-01-24T05:50:42.362Z,10.75
2018-01-24T05:53:10.079Z,10.74
2018-01-24T05:55:37.649Z,10.81
2018-01-24T05:58:05.192Z,10.91
2018-01-24T06:00:32.775Z,11.03
2018-01-24T06:03:00.820Z,10.96
2018-01-24T06:05:28.456Z,10.99
2018-01-24T06:07:56.008Z,10.96
2018-01-24T06:10:23.560Z,11.00
2018-01-24T06:12:51.141Z,11.00
2018-01-24T06:15:18.783Z,10.94
2018-01-24T06:17:46.349Z,10.94
2018-01-24T06:20:13.919Z,10.91
2018-01-24T06:22:41.440Z,10.89
2018-01-24T06:25:09.048Z,10.91
2018-01-24T06:27:36.588Z,10.99
2018-01-24T06:30:04.128Z,10.93
2018-01-24T06:32:31.712Z,11.07
2018-01-24T06:34:59.613Z,11.06
2018-01-24T06:37:27.184Z,11.03
2018-01-24T06:39:54.725Z,11.01
2018-01-24T06:42:22.314Z,11.08
2018-01-24T06:44:50.033Z,10.96
2018-01-24T06:47:17.572Z,10.98
2018-01-24T06:49:45.172Z,10.98
2018-01-24T06:52:12.760Z,11.14
2018-01-24T06:54:40.321Z,11.21
2018-01-24T06:57:07.900Z,11.11
2018-01-24T06:59:35.482Z,11.22
2018-01-24T07:02:03.037Z,11.21
2018-01-24T07:04:30.665Z,11.23
2018-01-24T07:06:58.226Z,11.24
2018-01-24T07:09:25.840Z,11.25
2018-01-24T07:11:53.466Z,11.24
2018-01-24T07:14:40.982Z,11.23
2018-01-24T07:17:08.556Z,11.23
2018-01-24T07:19:36.132Z,11.25
2018-01-24T07:22:03.708Z,11.16
2018-01-24T07:24:31.268Z,11.26
2018-01-24T07:26:58.854Z,11.24
2018-01-24T07:29:26.375Z,11.25
2018-01-24T07:31:53.911Z,11.18
2018-01-24T07:34:21.641Z,11.14
2018-01-24T07:36:49.264Z,11.16
2018-01-24T07:39:16.825Z,11.25
2018-01-24T07:41:45.064Z,11.12
2018-01-24T07:44:12.674Z,11.13
2018-01-24T07:46:40.219Z,11.23
2018-01-24T07:49:07.789Z,11.24
2018-01-24T07:51:35.403Z,11.15
2018-01-24T07:54:03.023Z,11.19
2018-01-24T07:56:30.598Z,11.17
2018-01-24T07:58:58.434Z,11.30
2018-01-24T08:01:25.998Z,11.18
2018-01-24T08:03:53.709Z,11.24
2018-01-24T08:06:21.336Z,11.30
2018-01-24T08:08:48.866Z,11.44
2018-01-24T08:11:16.482Z,11.43
2018-01-24T08:13:44.057Z,11.52
2018-01-24T08:16:11.609Z,11.47
2018-01-24T08:18:39.156Z,11.54
2018-01-24T08:21:06.743Z,11.52
2018-01-24T08:23:34.296Z,11.56
2018-01-24T08:26:02.647Z,11.64
2018-01-24T08:28:30.188Z,11.76
2018-01-24T08:30:57.795Z,11.81
2018-01-24T08:33:25.357Z,11.85
2018-01-24T08:35:52.960Z,11.72
2018-01-24T08:38:20.640Z,11.72
2018-01-24T08:40:48.272Z,11.74
2018-01-24T08:43:15.778Z,11.67
2018-01-24T08:45:43.357Z,11.76
2018-01-24T08:48:10.883Z,11.71
2018-01-24T08:50:38.408Z,11.76
2018-01-24T08:53:05.951Z,11.71
2018-01-24T08:55:33.487Z,11.75
2018-01-24T08:58:01.230Z,11.78
2018-01-24T09:00:28.869Z,11.78
2018-01-24T09:02:56.728Z,11.66
2018-01-24T09:05:24.280Z,11.80
2018-01-24T09:07:51.826Z,11.98
2018-01-24T09:10:19.747Z,11.94
2018-01-24T09:12:47.298Z,11.85
2018-01-24T09:15:14.810Z,11.84
2018-01-24T09:17:42.833Z,11.58
2018-01-24T09:20:10.403Z,11.59
2018-01-24T09:22:37.912Z,11.87
2018-01-24T09:25:05.456Z,11.85
2018-01-24T09:27:32.978Z,11.89
2018-01-24T09:30:00.924Z,11.84
2018-01-24T09:32:28.459Z,11.93
2018-01-24T09:34:56.007Z,11.83
2018-01-24T09:37:24.616Z,11.98
2018-01-24T09:39:52.273Z,11.90
2018-01-24T09:42:19.841Z,11.91
2018-01-24T09:44:47.398Z,11.89
2018-01-24T09:47:14.950Z,12.03
2018-01-24T09:49:42.482Z,11.99
2018-01-24T09:52:10.073Z,11.93
2018-01-24T09:54:37.628Z,12.11
2018-01-24T09:57:05.170Z,12.04
2018-01-24T09:59:32.767Z,12.14
2018-01-24T10:02:00.288Z,12.11
2018-01-24T10:04:27.842Z,12.34
2018-01-24T10:06:55.354Z,12.11
2018-01-24T10:09:22.973Z,12.15
2018-01-24T10:11:50.577Z,12.18
2018-01-24T10:14:18.441Z,12.26
2018-01-24T10:16:45.970Z,12.33
2018-01-24T10:19:13.867Z,12.20
2018-01-24T10:21:41.411Z,12.27
2018-01-24T10:24:08.945Z,12.14
2018-01-24T10:26:36.485Z,12.17
2018-01-24T10:29:04.234Z,12.38
2018-01-24T10:31:31.809Z,12.34
2018-01-24T10:33:59.567Z,12.31
2018-01-24T10:36:27.183Z,12.46
2018-01-24T10:38:54.770Z,12.38
2018-01-24T10:41:22.356Z,12.41
2018-01-24T10:43:49.939Z,12.46
2018-01-24T10:46:17.545Z,12.38
2018-01-24T10:48:45.092Z,12.40
2018-01-24T10:51:12.620Z,12.27
2018-01-24T10:53:40.172Z,12.35
2018-01-24T10:56:07.720Z,12.53
2018-01-24T10:58:35.275Z,12.39
2018-01-24T11:01:02.803Z,12.44
2018-01-24T11:03:30.330Z,12.48
2018-01-24T11:05:57.903Z,12.31
2018-01-24T11:08:25.419Z,12.46
2018-01-24T11:10:52.956Z,12.51
2018-01-24T11:13:20.584Z,12.34
2018-01-24T11:15:48.175Z,12.42
2018-01-24T11:18:15.745Z,12.59
2018-01-24T11:20:43.369Z,12.46
2018-01-24T11:23:11.289Z,12.58
2018-01-24T11:25:38.844Z,12.56
2018-01-24T11:28:06.396Z,12.59
2018-01-24T11:30:33.962Z,12.67
2018-01-24T11:33:01.537Z,12.64
2018-01-24T11:35:29.115Z,12.64
2018-01-24T11:37:56.975Z,12.81
2018-01-24T11:40:24.537Z,12.72
2018-01-24T11:42:52.085Z,12.60
2018-01-24T11:45:19.643Z,12.99
2018-01-24T11:47:47.163Z,12.93
2018-01-24T11:50:15.092Z,13.06
2018-01-24T11:52:42.669Z,12.88
2018-01-24T11:55:10.252Z,12.82
2018-01-24T11:57:37.796Z,12.59
2018-01-24T12:00:05.342Z,12.73
2018-01-24T12:02:32.884Z,12.63
2018-01-24T12:05:00.783Z,12.52
2018-01-24T12:07:28.352Z,12.56
2018-01-24T12:09:55.875Z,12.59
2018-01-24T12:12:23.505Z,12.63
2018-01-24T12:14:51.400Z,12.58
2018-01-24T12:17:19.061Z,12.50
2018-01-24T12:19:46.600Z,12.65
2018-01-24T12:22:14.168Z,12.75
2018-01-24T12:24:41.735Z,12.71
2018-01-24T12:27:09.342Z,12.80
2018-01-24T12:29:36.864Z,12.77
2018-01-24T12:32:04.553Z,12.88
2018-01-24T12:34:32.491Z,12.60
2018-01-24T12:37:00.030Z,12.64
2018-01-24T12:39:27.620Z,12.75
2018-01-24T12:41:55.190Z,12.91
2018-01-24T12:44:22.708Z,12.94
2018-01-24T12:46:50.648Z,13.09
2018-01-24T12:49:18.223Z,13.14
2018-01-24T12:51:45.868Z,13.06
2018-01-24T12:54:13.537Z,13.33
2018-01-24T12:56:41.499Z,13.53
2018-01-24T12:59:09.028Z,13.51
2018-01-24T13:01:36.649Z,13.49
2018-01-24T13:04:04.163Z,13.55
2018-01-24T13:06:31.845Z,13.51
2018-01-24T13:08:59.632Z,13.40
2018-01-24T13:11:27.540Z,13.38
2018-01-24T13:13:55.199Z,13.28
2018-01-24T13:16:22.709Z,13.19
2018-01-24T13:18:50.308Z,13.31
2018-01-24T13:21:17.856Z,13.41
2018-01-24T13:23:45.390Z,13.29
2018-01-24T13:26:13.257Z,13.34
2018-01-24T13:28:40.774Z,13.25
2018-01-24T13:31:08.305Z,13.22
2018-01-24T13:33:36.135Z,13.26
2018-01-24T13:36:03.680Z,13.30
2018-01-24T13:38:31.225Z,13.30
2018-01-24T13:40:58.794Z,13.44
2018-01-24T13:43:26.344Z,13.61
2018-01-24T13:45:53.884Z,13.79
2018-01-24T13:48:21.416Z,13.57
2018-01-24T13:50:49.122Z,13.62
2018-01-24T13:53:16.667Z,13.48
2018-01-24T13:55:44.233Z,13.58
2018-01-24T13:58:11.739Z,13.55
2018-01-24T14:00:39.959Z,13.65
2018-01-24T14:03:07.500Z,13.68
2018-01-24T14:05:35.093Z,13.57
2018-01-24T14:08:02.653Z,13.40
2018-01-24T14:10:30.191Z,13.49
2018-01-24T14:12:57.751Z,13.36
2018-01-24T14:15:25.423Z,13.32
2018-01-24T14:17:52.988Z,13.32
2018-01-24T14:20:20.585Z,13.45
2018-01-24T14:22:48.176Z,13.26
2018-01-24T14:25:15.691Z,13.28
2018-01-24T14:27:43.223Z,13.14
2018-01-24T14:30:10.800Z,13.10
2018-01-24T14:32:38.647Z,13.21
2018-01-24T14:35:06.167Z,13.28
2018-01-24T14:37:33.694Z,13.15
2018-01-24T14:40:01.250Z,13.30
2018-01-24T14:42:28.770Z,13.27
2018-01-24T14:44:56.317Z,13.39
2018-01-24T14:47:24.149Z,13.26
2018-01-24T14:49:51.706Z,13.21
2018-01-24T14:52:19.302Z,13.25
2018-01-24T14:54:46.840Z,13.26
2018-01-24T14:57:14.380Z,13.25
2018-01-24T14:59:42.035Z,13.31
2018-01-24T15:02:09.562Z,13.29
2018-01-24T15:04:37.099Z,13.30
2018-01-24T15:07:04.664Z,13.30
2018-01-24T15:09:32.208Z,13.27
2018-01-24T15:11:59.848Z,13.06
2018-01-24T15:14:27.406Z,13.00
2018-01-24T15:16:54.924Z,12.97
2018-01-24T15:19:22.521Z,12.87
2018-01-24T15:21:50.074Z,12.77
2018-01-24T15:24:18.038Z,12.75
2018-01-24T15:26:45.593Z,12.60
2018-01-24T15:29:13.168Z,12.52
2018-01-24T15:31:40.882Z,12.56
2018-01-24T15:34:08.436Z,12.49
2018-01-24T15:36:36.021Z,12.38
2018-01-24T15:39:03.606Z,12.37
2018-01-24T15:41:31.478Z,12.29
2018-01-24T15:43:59.026Z,12.28
2018-01-24T15:46:26.556Z,12.36
2018-01-24T15:48:54.151Z,12.27
2018-01-24T15:51:21.720Z,12.35
2018-01-24T15:53:49.241Z,12.36
2018-01-24T15:56:17.541Z,12.15
2018-01-24T15:58:45.092Z,12.07
2018-01-24T16:01:12.772Z,12.22
2018-01-24T16:03:40.329Z,12.00
2018-01-24T16:06:07.868Z,11.89
2018-01-24T16:08:35.412Z,11.89
2018-01-24T16:11:02.968Z,11.92
2018-01-24T16:13:30.488Z,11.83
2018-01-24T16:15:58.350Z,11.75
2018-01-24T16:18:25.873Z,11.81
2018-01-24T16:20:53.427Z,11.98
2018-01-24T16:23:21.017Z,12.00
2018-01-24T16:25:48.557Z,11.81
2018-01-24T16:28:16.103Z,11.97
2018-01-24T16:30:43.658Z,12.08
2018-01-24T16:33:11.205Z,12.06
2018-01-24T16:35:38.820Z,12.07
2018-01-24T16:38:06.336Z,12.18
2018-01-24T16:40:33.870Z,12.13
2018-01-24T16:43:01.446Z,12.18
2018-01-24T16:45:28.973Z,12.42
2018-01-24T16:47:56.534Z,12.23
2018-01-24T16:50:24.085Z,12.22
2018-01-24T16:52:51.605Z,12.26
2018-01-24T16:55:19.130Z,12.30
2018-01-24T16:57:46.687Z,12.43
2018-01-24T17:00:14.282Z,12.50
2018-01-24T17:02:41.805Z,12.60
2018-01-24T17:05:09.376Z,12.58
2018-01-24T17:07:36.903Z,12.61
2018-01-24T17:10:04.422Z,12.42
2018-01-24T17:12:31.959Z,12.42
2018-01-24T17:14:59.533Z,12.36
2018-01-24T17:17:27.125Z,12.45
2018-01-24T17:19:54.691Z,12.48
2018-01-24T17:22:22.219Z,12.36
2018-01-24T17:24:50.086Z,12.34
2018-01-24T17:27:17.596Z,12.56
2018-01-24T17:29:45.108Z,12.52
2018-01-24T17:32:12.666Z,12.49
2018-01-24T17:34:40.277Z,12.52
2018-01-24T17:37:09.099Z,12.48
2018-01-24T17:39:36.632Z,12.47
2018-01-24T17:42:04.216Z,12.47
2018-01-24T17:44:31.784Z,12.41
2018-01-24T17:46:59.297Z,12.45
2018-01-24T17:49:26.995Z,12.43
2018-01-24T17:51:54.502Z,12.58
2018-01-24T17:54:22.049Z,12.58
2018-01-24T17:56:49.622Z,12.45
2018-01-24T17:59:17.147Z,12.42
2018-01-24T18:01:44.691Z,12.50
2018-01-24T18:04:12.213Z,12.45
2018-01-24T18:06:40.067Z,12.40
2018-01-24T18:09:10.560Z,12.29
2018-01-24T18:11:38.507Z,12.25
2018-01-24T18:14:07.199Z,12.18
2018-01-24T18:16:34.896Z,12.23
2018-01-24T18:19:03.045Z,12.32
2018-01-24T18:21:30.607Z,12.28
2018-01-24T18:23:58.277Z,12.38
2018-01-24T18:26:25.835Z,12.37
2018-01-24T18:28:53.372Z,12.34
2018-01-24T18:31:21.348Z,12.37
2018-01-24T18:33:48.907Z,12.27
2018-01-24T18:36:17.720Z,12.34
2018-01-24T18:38:47.514Z,12.43
2018-01-24T18:41:18.142Z,12.40
2018-01-24T18:43:47.131Z,12.35
2018-01-24T18:46:14.815Z,12.36
2018-01-24T18:48:44.936Z,12.41
2018-01-24T18:51:12.504Z,12.45
2018-01-24T18:53:40.222Z,12.36
2018-01-24T18:56:07.795Z,12.44
2018-01-24T18:58:35.363Z,12.30
2018-01-24T19:01:02.892Z,12.37
2018-01-24T19:03:30.469Z,12.38
2018-01-24T19:05:58.074Z,12.42
2018-01-24T19:08:25.640Z,12.38
2018-01-24T19:10:53.537Z,12.41
2018-01-24T19:13:21.076Z,12.35
2018-01-24T19:15:48.687Z,12.53
2018-01-24T19:18:16.262Z,12.39
2018-01-24T19:20:44.196Z,12.37
2018-01-24T19:23:11.800Z,12.54
2018-01-24T19:25:39.353Z,12.44
2018-01-24T19:28:07.257Z,12.26
2018-01-24T19:30:34.816Z,12.33
2018-01-24T19:33:02.743Z,12.36
2018-01-24T19:35:30.274Z,12.26
2018-01-24T19:37:57.792Z,12.23
2018-01-24T19:40:25.683Z,12.29
2018-01-24T19:42:53.316Z,12.39
2018-01-24T19:45:20.862Z,12.27
2018-01-24T19:47:48.439Z,12.33
2018-01-24T19:50:16.056Z,12.23
2018-01-24T19:52:43.626Z,12.23
2018-01-24T19:55:11.207Z,12.24
2018-01-24T19:57:38.837Z,12.32
2018-01-24T20:00:06.436Z,12.30
2018-01-24T20:02:34.368Z,12.32
2018-01-24T20:05:01.922Z,12.30
2018-01-24T20:07:29.446Z,12.21
2018-01-24T20:09:57.048Z,12.11
2018-01-24T20:12:24.610Z,12.32
2018-01-24T20:14:52.215Z,12.29
2018-01-24T20:17:19.879Z,12.28
2018-01-24T20:19:47.475Z,12.36
2018-01-24T20:22:15.038Z,12.32
2018-01-24T20:24:42.665Z,12.29
2018-01-24T20:27:10.416Z,12.30
2018-01-24T20:29:38.250Z,12.22
2018-01-24T20:32:05.856Z,12.13
2018-01-24T20:34:33.615Z,12.13
2018-01-24T20:37:01.212Z,12.22
2018-01-24T20:39:28.766Z,12.06
2018-01-24T20:41:56.419Z,12.31
2018-01-24T20:44:23.990Z,12.19
2018-01-24T20:46:51.652Z,12.16
2018-01-24T20:49:19.231Z,12.15
2018-01-24T20:51:46.833Z,12.15
2018-01-24T20:54:14.391Z,12.10
2018-01-24T20:56:41.971Z,11.98
2018-01-24T20:59:09.494Z,12.04
2018-01-24T21:01:37.036Z,11.94
2018-01-24T21:04:05.598Z,11.91
2018-01-24T21:06:33.198Z,11.97
2018-01-24T21:09:00.722Z,11.81
2018-01-24T21:11:28.259Z,11.59
2018-01-24T21:13:55.866Z,11.61
2018-01-24T21:16:23.417Z,11.53
2018-01-24T21:18:50.944Z,11.42
2018-01-24T21:21:18.488Z,11.37
2018-01-24T21:23:46.017Z,11.43
2018-01-24T21:26:13.584Z,11.38
2018-01-24T21:28:48.103Z,11.41
2018-01-24T21:31:27.506Z,11.28
2018-01-24T21:34:07.795Z,11.32
2018-01-24T21:36:35.454Z,9.34
2018-01-24T21:39:03.006Z,8.91
2018-01-24T21:41:30.540Z,8.63
2018-01-24T21:43:58.438Z,8.69
2018-01-24T21:46:25.988Z,8.20
2018-01-24T21:48:53.506Z,8.07
2018-01-24T21:51:21.358Z,8.08
2018-01-24T21:53:48.896Z,7.98
2018-01-24T21:56:16.412Z,7.98
2018-01-24T21:58:44.048Z,7.88
2018-01-24T22:01:11.577Z,7.77
2018-01-24T22:03:39.156Z,7.90
2018-01-24T22:06:06.773Z,7.77
2018-01-24T22:08:34.316Z,7.70
2018-01-24T22:11:01.888Z,7.75
2018-01-24T22:13:29.439Z,7.68
2018-01-24T22:15:56.991Z,7.80
2018-01-24T22:18:24.536Z,7.87
2018-01-24T22:20:52.155Z,7.80
2018-01-24T22:23:19.701Z,7.65
2018-01-24T22:25:47.211Z,7.61
2018-01-24T22:28:14.770Z,7.72
2018-01-24T22:30:42.311Z,7.63
2018-01-24T22:33:09.847Z,7.59
2018-01-24T22:35:37.360Z,7.72
2018-01-24T22:38:04.924Z,7.79
2018-01-24T22:40:32.432Z,7.69
2018-01-24T22:42:59.959Z,7.75
2018-01-24T22:45:27.549Z,7.72
2018-01-24T22:47:55.097Z,7.66
2018-01-24T22:50:22.654Z,7.71
2018-01-24T22:52:50.342Z,7.65
2018-01-24T22:55:17.903Z,7.80
2018-01-24T22:57:45.444Z,7.64
2018-01-24T23:00:25.051Z,7.77
2018-01-24T23:02:52.572Z,7.70
2018-01-24T23:05:20.117Z,7.55
2018-01-24T23:07:47.675Z,7.58
2018-01-24T23:10:15.239Z,7.70
2018-01-24T23:12:42.750Z,7.88
2018-01-24T23:15:10.370Z,7.64
2018-01-24T23:17:37.906Z,7.59
2018-01-24T23:20:05.463Z,7.65
2018-01-24T23:22:33.010Z,7.65
2018-01-24T23:25:00.601Z,7.69
2018-01-24T23:27:28.232Z,7.47
2018-01-24T23:29:55.801Z,7.54
2018-01-24T23:32:23.332Z,7.74
2018-01-24T23:34:50.884Z,7.71
2018-01-24T23:37:18.417Z,7.76
2018-01-24T23:39:45.988Z,7.57
2018-01-24T23:42:13.501Z,7.63
2018-01-24T23:44:41.055Z,7.58
2018-01-24T23:47:08.610Z,7.50
2018-01-24T23:49:36.176Z,7.56
2018-01-24T23:52:03.707Z,7.69
2018-01-24T23:54:31.253Z,7.65
2018-01-24T23:56:58.853Z,7.79
2018-01-24T23:59:26.376Z,7.61
